createdAt,value
2019-05-11T00:00:36.530Z,17.07
2019-05-11T00:03:06.770Z,18.80
2019-05-11T00:05:42.551Z,17.12
2019-05-11T00:08:17.089Z,18.80
2019-05-11T00:10:50.123Z,19.02
2019-05-11T00:13:29.805Z,18.67
2019-05-11T00:16:03.350Z,18.90
2019-05-11T00:18:34.916Z,19.95
2019-05-11T00:21:05.191Z,20.47
2019-05-11T00:23:35.227Z,26.07
2019-05-11T00:26:12.420Z,26.87
2019-05-11T00:28:44.113Z,26.02
2019-05-11T00:31:14.349Z,28.05
2019-05-11T00:33:44.563Z,27.30
2019-05-11T00:36:15.232Z,28.00
2019-05-11T00:41:23.777Z,20.77
2019-05-11T00:43:55.876Z,22.60
2019-05-11T00:46:30.116Z,21.05
2019-05-11T00:49:12.758Z,21.40
2019-05-11T00:51:39.878Z,19.85
2019-05-11T00:54:09.859Z,23.35
2019-05-11T00:56:41.383Z,24.07
2019-05-11T00:59:23.134Z,23.27
2019-05-11T01:02:02.192Z,25.72
2019-05-11T01:04:34.974Z,22.22
2019-05-11T01:07:13.174Z,22.60
2019-05-11T01:09:50.989Z,20.23
2019-05-11T01:12:27.819Z,18.25
2019-05-11T01:15:00.996Z,21.68
2019-05-11T01:17:31.846Z,25.30
2019-05-11T01:20:09.332Z,28.92
2019-05-11T01:22:42.696Z,28.05
2019-05-11T01:25:17.644Z,19.37
2019-05-11T01:27:51.296Z,17.35
2019-05-11T01:30:28.711Z,21.17
2019-05-11T01:32:58.841Z,17.95
2019-05-11T01:35:35.076Z,17.80
2019-05-11T01:38:11.367Z,18.92
2019-05-11T01:40:57.247Z,16.62
2019-05-11T01:43:18.741Z,19.07
2019-05-11T01:45:50.976Z,17.50
2019-05-11T01:48:26.707Z,17.05
2019-05-11T01:50:56.813Z,15.20
2019-05-11T01:53:28.470Z,13.95
2019-05-11T01:56:06.817Z,18.42
2019-05-11T01:58:40.876Z,18.98
2019-05-11T02:01:11.072Z,35.38
2019-05-11T02:03:41.103Z,42.20
2019-05-11T02:06:14.110Z,26.27
2019-05-11T02:08:46.651Z,25.32
2019-05-11T02:11:18.991Z,19.95
2019-05-11T02:13:49.088Z,20.62
2019-05-11T02:16:20.530Z,22.13
2019-05-11T02:18:53.815Z,26.87
2019-05-11T02:21:26.808Z,27.13
2019-05-11T02:23:57.023Z,36.45
2019-05-11T02:26:32.581Z,49.35
2019-05-11T02:29:05.648Z,59.35
2019-05-11T02:31:42.299Z,62.43
2019-05-11T02:34:15.312Z,70.60
2019-05-11T02:36:47.290Z,65.78
2019-05-11T02:39:20.384Z,61.53
2019-05-11T02:41:52.030Z,54.98
2019-05-11T02:44:28.967Z,53.13
2019-05-11T02:47:08.671Z,44.45
2019-05-11T02:49:40.298Z,42.30
2019-05-11T02:52:18.967Z,44.50
2019-05-11T02:54:50.782Z,37.53
2019-05-11T02:57:26.288Z,35.98
2019-05-11T02:59:56.305Z,36.05
2019-05-11T03:02:27.401Z,35.65
2019-05-11T03:05:02.841Z,29.85
2019-05-11T03:07:34.027Z,28.38
2019-05-11T03:10:09.321Z,28.27
2019-05-11T03:12:40.014Z,32.40
2019-05-11T03:15:10.378Z,29.72
2019-05-11T03:17:41.881Z,32.45
2019-05-11T03:20:15.932Z,32.30
2019-05-11T03:22:46.507Z,35.40
2019-05-11T03:25:18.305Z,34.43
2019-05-11T03:27:49.267Z,38.98
2019-05-11T03:30:27.391Z,38.17
2019-05-11T03:33:01.133Z,40.95
2019-05-11T03:35:35.179Z,39.98
2019-05-11T03:38:13.277Z,29.77
2019-05-11T03:40:43.257Z,32.05
2019-05-11T03:43:17.989Z,23.75
2019-05-11T03:45:53.649Z,21.07
2019-05-11T03:48:24.020Z,22.22
2019-05-11T03:50:57.238Z,23.15
2019-05-11T03:53:27.529Z,23.55
2019-05-11T03:56:08.648Z,22.48
2019-05-11T03:58:59.334Z,24.10
2019-05-11T04:01:29.342Z,22.62
2019-05-11T04:04:00.613Z,21.93
2019-05-11T04:06:32.766Z,21.80
2019-05-11T04:11:37.271Z,21.42
2019-05-11T04:14:11.053Z,20.45
2019-05-11T04:16:52.788Z,20.90
2019-05-11T04:19:25.970Z,19.45
2019-05-11T04:21:55.956Z,17.87
2019-05-11T04:24:29.280Z,17.57
2019-05-11T04:27:02.265Z,15.85
2019-05-11T04:29:32.330Z,14.68
2019-05-11T04:32:08.275Z,17.75
2019-05-11T04:34:44.349Z,18.48
2019-05-11T04:37:15.216Z,16.73
2019-05-11T04:39:48.738Z,16.27
2019-05-11T04:42:25.181Z,16.67
2019-05-11T04:45:04.701Z,16.52
2019-05-11T04:47:34.781Z,16.05
2019-05-11T04:50:14.515Z,15.83
2019-05-11T04:52:59.878Z,15.40
2019-05-11T04:55:30.137Z,14.75
2019-05-11T04:58:00.377Z,13.65
2019-05-11T05:00:31.051Z,14.98
2019-05-11T05:03:06.167Z,13.08
2019-05-11T05:05:38.570Z,13.98
2019-05-11T05:08:10.029Z,12.70
2019-05-11T05:10:52.320Z,13.35
2019-05-11T05:13:23.246Z,13.32
2019-05-11T05:15:54.352Z,14.38
2019-05-11T05:18:27.167Z,14.17
2019-05-11T05:21:02.073Z,14.23
2019-05-11T05:23:33.760Z,11.83
2019-05-11T05:26:05.189Z,12.40
2019-05-11T05:28:35.305Z,11.50
2019-05-11T05:31:11.906Z,11.78
2019-05-11T05:33:44.431Z,12.68
2019-05-11T05:36:16.717Z,11.90
2019-05-11T05:41:20.826Z,10.45
2019-05-11T05:43:56.375Z,10.30
2019-05-11T05:46:27.497Z,10.98
2019-05-11T05:49:01.588Z,14.70
2019-05-11T05:51:37.222Z,14.05
2019-05-11T05:54:13.171Z,11.78
2019-05-11T05:56:46.960Z,13.68
2019-05-11T05:59:19.599Z,16.37
2019-05-11T06:01:50.712Z,12.15
2019-05-11T06:04:23.799Z,13.50
2019-05-11T06:06:54.271Z,12.00
2019-05-11T06:09:24.142Z,14.78
2019-05-11T06:11:56.873Z,12.43
2019-05-11T06:14:36.403Z,16.55
2019-05-11T06:17:14.069Z,14.40
2019-05-11T06:19:48.875Z,14.33
2019-05-11T06:22:31.723Z,13.35
2019-05-11T06:25:05.536Z,12.93
2019-05-11T06:27:42.311Z,14.15
2019-05-11T06:30:12.631Z,10.88
2019-05-11T06:32:46.472Z,10.93
2019-05-11T06:35:16.793Z,10.90
2019-05-11T06:40:38.431Z,9.38
2019-05-11T06:43:08.813Z,12.13
2019-05-11T06:45:40.418Z,10.45
2019-05-11T06:48:19.714Z,12.47
2019-05-11T06:53:55.647Z,12.33
2019-05-11T06:56:28.796Z,11.53
2019-05-11T06:59:11.484Z,13.72
2019-05-11T07:01:46.614Z,13.55
2019-05-11T07:04:31.530Z,11.05
2019-05-11T07:07:15.325Z,11.40
2019-05-11T07:12:39.115Z,10.20
2019-05-11T07:15:29.679Z,11.85
2019-05-11T07:18:12.401Z,8.75
2019-05-11T07:20:57.182Z,8.25
2019-05-11T07:23:33.897Z,7.45
2019-05-11T07:26:04.105Z,7.45
2019-05-11T07:31:11.219Z,6.67
2019-05-11T07:33:42.355Z,5.97
2019-05-11T07:36:17.760Z,6.47
2019-05-11T07:38:51.210Z,6.37
2019-05-11T07:44:12.842Z,5.70
2019-05-11T07:46:58.532Z,6.05
2019-05-11T07:49:38.289Z,6.53
2019-05-11T07:52:12.367Z,6.53
2019-05-11T07:54:51.958Z,5.95
2019-05-11T07:57:30.754Z,5.90
2019-05-11T08:00:15.720Z,6.33
2019-05-11T08:02:49.928Z,6.12
2019-05-11T08:05:28.375Z,5.78
2019-05-11T08:08:12.373Z,6.67
2019-05-11T08:13:23.456Z,6.67
2019-05-11T08:15:53.385Z,6.00
2019-05-11T08:18:23.673Z,7.12
2019-05-11T08:20:53.770Z,11.83
2019-05-11T08:23:24.128Z,12.10
2019-05-11T08:25:54.594Z,10.58
2019-05-11T08:28:24.882Z,11.90
2019-05-11T08:30:55.119Z,9.05
2019-05-11T08:33:27.746Z,8.75
2019-05-11T08:38:29.637Z,13.08
2019-05-11T08:41:04.626Z,11.45
2019-05-11T08:43:34.800Z,6.10
2019-05-11T08:46:05.069Z,5.33
2019-05-11T08:48:35.272Z,5.85
2019-05-11T08:51:05.551Z,5.65
2019-05-11T08:53:35.598Z,6.40
2019-05-11T08:56:05.786Z,11.73
2019-05-11T08:58:37.810Z,9.33
2019-05-11T09:01:08.868Z,6.62
2019-05-11T09:03:39.235Z,6.37
2019-05-11T09:06:09.462Z,5.10
2019-05-11T09:08:39.508Z,5.47
2019-05-11T09:11:09.463Z,5.25
2019-05-11T09:13:40.004Z,5.17
2019-05-11T09:16:09.996Z,5.25
2019-05-11T09:18:40.017Z,5.35
2019-05-11T09:21:10.217Z,6.22
2019-05-11T09:23:40.885Z,5.72
2019-05-11T09:26:11.138Z,5.92
2019-05-11T09:28:41.647Z,6.72
2019-05-11T09:31:11.915Z,7.37
2019-05-11T09:33:41.958Z,7.30
2019-05-11T09:36:11.940Z,7.70
2019-05-11T09:38:42.020Z,10.82
2019-05-11T09:41:18.568Z,12.10
2019-05-11T09:43:48.856Z,9.10
2019-05-11T09:46:20.139Z,8.38
2019-05-11T09:48:59.010Z,10.78
2019-05-11T09:51:33.628Z,11.30
2019-05-11T09:54:15.091Z,9.60
2019-05-11T09:56:48.844Z,10.20
2019-05-11T10:02:09.822Z,11.03
2019-05-11T10:04:42.715Z,10.40
2019-05-11T10:07:38.611Z,8.85
2019-05-11T10:10:11.507Z,7.58
2019-05-11T10:12:44.702Z,10.38
2019-05-11T10:15:34.384Z,9.23
2019-05-11T10:18:09.699Z,6.70
2019-05-11T10:20:42.934Z,6.17
2019-05-11T10:23:13.546Z,5.78
2019-05-11T10:25:49.777Z,5.67
2019-05-11T10:28:24.023Z,5.45
2019-05-11T10:31:12.081Z,5.72
2019-05-11T10:33:48.964Z,5.78
2019-05-11T10:36:27.840Z,5.80
2019-05-11T10:41:38.745Z,6.22
2019-05-11T10:44:04.706Z,5.85
2019-05-11T10:46:42.239Z,4.92
2019-05-11T10:49:18.306Z,6.40
2019-05-11T10:52:09.821Z,6.33
2019-05-11T10:54:44.596Z,7.53
2019-05-11T10:57:19.022Z,7.70
2019-05-11T10:59:51.827Z,6.90
2019-05-11T11:02:33.774Z,6.87
2019-05-11T11:05:05.297Z,6.58
2019-05-11T11:08:13.233Z,5.58
2019-05-11T11:13:33.047Z,6.25
2019-05-11T11:16:08.397Z,6.40
2019-05-11T11:18:38.774Z,5.53
2019-05-11T11:21:10.265Z,6.95
2019-05-11T11:26:11.214Z,5.03
2019-05-11T11:28:43.480Z,5.78
2019-05-11T11:31:18.388Z,6.12
2019-05-11T11:33:49.243Z,6.22
2019-05-11T11:36:23.002Z,6.53
2019-05-11T11:41:30.047Z,6.45
2019-05-11T11:44:01.858Z,5.62
2019-05-11T11:46:48.511Z,5.90
2019-05-11T11:49:09.502Z,5.53
2019-05-11T11:51:45.280Z,4.83
2019-05-11T11:54:18.157Z,5.65
2019-05-11T11:56:48.665Z,6.03
2019-05-11T11:59:21.373Z,6.47
2019-05-11T12:01:51.995Z,6.28
2019-05-11T12:04:23.838Z,6.10
2019-05-11T12:06:58.043Z,6.10
2019-05-11T12:09:29.735Z,5.85
2019-05-11T12:12:01.449Z,5.90
2019-05-11T12:14:34.608Z,5.83
2019-05-11T12:19:40.674Z,4.97
2019-05-11T12:22:11.815Z,5.53
2019-05-11T12:24:48.163Z,5.53
2019-05-11T12:27:38.653Z,4.60
2019-05-11T12:33:08.332Z,3.85
2019-05-11T12:35:41.677Z,5.50
2019-05-11T12:38:13.838Z,5.00
2019-05-11T12:40:47.698Z,4.80
2019-05-11T12:43:22.470Z,4.33
2019-05-11T12:45:55.561Z,5.87
2019-05-11T12:48:28.459Z,6.15
2019-05-11T12:51:03.639Z,4.58
2019-05-11T12:53:35.692Z,4.58
2019-05-11T12:56:08.205Z,4.42
2019-05-11T12:58:39.594Z,4.62
2019-05-11T13:01:10.118Z,3.85
2019-05-11T13:03:39.915Z,3.50
2019-05-11T13:06:12.932Z,3.85
2019-05-11T13:08:48.075Z,4.37
2019-05-11T13:11:18.964Z,3.87
2019-05-11T13:13:51.839Z,3.95
2019-05-11T13:16:25.653Z,3.90
2019-05-11T13:18:57.647Z,3.70
2019-05-11T13:21:31.079Z,3.40
2019-05-11T13:24:04.649Z,3.55
2019-05-11T13:26:40.410Z,3.27
2019-05-11T13:29:11.712Z,3.40
2019-05-11T13:31:43.530Z,2.92
2019-05-11T13:34:17.946Z,3.45
2019-05-11T13:36:53.150Z,3.40
2019-05-11T13:39:29.234Z,3.58
2019-05-11T13:42:03.745Z,3.10
2019-05-11T13:44:38.468Z,3.40
2019-05-11T13:47:10.590Z,3.62
2019-05-11T13:49:41.957Z,4.10
2019-05-11T13:52:13.751Z,4.35
2019-05-11T13:54:48.342Z,3.95
2019-05-11T13:57:19.939Z,3.65
2019-05-11T13:59:50.314Z,3.27
2019-05-11T14:05:14.720Z,3.30
2019-05-11T14:07:48.545Z,3.45
2019-05-11T14:10:18.747Z,3.35
2019-05-11T14:12:52.754Z,3.30
2019-05-11T14:15:25.324Z,3.65
2019-05-11T14:18:05.755Z,3.20
2019-05-11T14:26:12.158Z,3.10
2019-05-11T14:28:48.175Z,4.22
2019-05-11T14:31:19.133Z,3.70
2019-05-11T14:36:28.164Z,3.10
2019-05-11T14:38:58.980Z,2.77
2019-05-11T14:41:31.513Z,3.20
2019-05-11T14:44:05.032Z,3.10
2019-05-11T14:46:39.548Z,3.05
2019-05-11T14:49:11.641Z,2.98
2019-05-11T14:51:41.379Z,2.60
2019-05-11T14:54:18.837Z,2.42
2019-05-11T14:56:49.893Z,2.70
2019-05-11T14:59:22.720Z,2.55
2019-05-11T15:01:55.155Z,2.40
2019-05-11T15:04:25.291Z,2.83
2019-05-11T15:06:55.196Z,2.55
2019-05-11T15:09:25.155Z,2.75
2019-05-11T15:11:55.147Z,2.37
2019-05-11T15:14:25.319Z,2.65
2019-05-11T15:16:57.521Z,3.40
2019-05-11T15:19:27.824Z,3.15
2019-05-11T15:21:58.477Z,4.15
2019-05-11T15:24:28.897Z,4.30
2019-05-11T15:26:59.385Z,2.92
2019-05-11T15:29:29.488Z,2.60
2019-05-11T15:31:59.686Z,2.90
2019-05-11T15:34:29.670Z,2.80
2019-05-11T15:36:59.986Z,3.30
2019-05-11T15:39:30.076Z,3.22
2019-05-11T15:42:09.655Z,2.60
2019-05-11T15:44:31.585Z,2.55
2019-05-11T15:47:01.486Z,3.00
2019-05-11T15:49:32.074Z,2.30
2019-05-11T15:52:02.213Z,2.55
2019-05-11T15:54:33.158Z,2.50
2019-05-11T15:57:03.192Z,2.60
2019-05-11T15:59:33.177Z,2.58
2019-05-11T16:02:03.251Z,2.40
2019-05-11T16:04:33.343Z,2.58
2019-05-11T16:07:03.485Z,2.95
2019-05-11T16:09:33.558Z,2.42
2019-05-11T16:12:04.580Z,2.65
2019-05-11T16:14:34.756Z,3.05
2019-05-11T16:17:04.900Z,4.50
2019-05-11T16:19:34.895Z,2.65
2019-05-11T16:22:05.032Z,10.93
2019-05-11T16:24:35.378Z,21.37
2019-05-11T16:27:05.497Z,4.72
2019-05-11T16:29:38.471Z,3.22
2019-05-11T16:32:08.917Z,3.12
2019-05-11T16:34:39.146Z,2.77
2019-05-11T16:37:10.289Z,2.95
2019-05-11T16:39:40.316Z,5.83
2019-05-11T16:42:10.383Z,6.10
2019-05-11T16:44:40.556Z,2.67
2019-05-11T16:47:10.525Z,2.58
2019-05-11T16:49:40.502Z,8.23
2019-05-11T16:52:10.407Z,3.37
2019-05-11T16:54:41.540Z,2.65
2019-05-11T16:57:11.902Z,3.42
2019-05-11T16:59:42.289Z,3.45
2019-05-11T17:02:12.363Z,4.67
2019-05-11T17:04:42.447Z,3.15
2019-05-11T17:07:13.244Z,3.72
2019-05-11T17:09:43.170Z,3.45
2019-05-11T17:12:13.552Z,3.10
2019-05-11T17:14:58.402Z,2.80
2019-05-11T17:17:29.357Z,2.90
2019-05-11T17:19:59.797Z,2.87
2019-05-11T17:22:29.774Z,2.50
2019-05-11T17:24:59.715Z,2.80
2019-05-11T17:27:30.903Z,2.70
2019-05-11T17:30:01.088Z,3.00
2019-05-11T17:32:31.101Z,3.92
2019-05-11T17:35:01.522Z,3.00
2019-05-11T17:37:31.934Z,3.40
2019-05-11T17:40:02.142Z,3.30
2019-05-11T17:42:32.074Z,3.33
2019-05-11T17:45:03.914Z,2.95
2019-05-11T17:47:33.971Z,2.75
2019-05-11T17:50:07.938Z,2.80
2019-05-11T17:52:38.481Z,2.83
2019-05-11T17:55:09.816Z,3.25
2019-05-11T17:57:39.886Z,3.60
2019-05-11T18:00:11.272Z,3.77
2019-05-11T18:02:41.436Z,3.17
2019-05-11T18:05:11.622Z,3.12
2019-05-11T18:07:41.660Z,3.12
2019-05-11T18:10:12.251Z,6.28
2019-05-11T18:12:42.310Z,5.37
2019-05-11T18:15:12.888Z,4.90
2019-05-11T18:17:43.142Z,4.15
2019-05-11T18:20:17.641Z,5.33
2019-05-11T18:25:18.252Z,4.83
2019-05-11T18:27:49.375Z,7.95
2019-05-11T18:30:24.157Z,5.45
2019-05-11T18:32:54.528Z,6.22
2019-05-11T18:35:24.933Z,6.17
2019-05-11T18:37:55.220Z,6.25
2019-05-11T18:40:25.541Z,6.22
2019-05-11T18:42:57.883Z,5.62
2019-05-11T18:45:29.169Z,6.85
2019-05-11T18:47:59.993Z,7.12
2019-05-11T18:50:31.426Z,8.15
2019-05-11T18:53:01.949Z,8.05
2019-05-11T18:55:33.465Z,7.25
2019-05-11T18:58:03.504Z,8.43
2019-05-11T19:00:38.057Z,11.18
2019-05-11T19:03:08.789Z,17.90
2019-05-11T19:05:39.108Z,22.70
2019-05-11T19:08:09.240Z,15.13
2019-05-11T19:10:39.321Z,13.50
2019-05-11T19:13:09.836Z,14.23
2019-05-11T19:15:39.984Z,9.40
2019-05-11T19:18:10.320Z,9.08
2019-05-11T19:20:45.827Z,8.80
2019-05-11T19:23:13.414Z,11.15
2019-05-11T19:25:44.683Z,19.45
2019-05-11T19:28:14.723Z,22.20
2019-05-11T19:30:44.824Z,20.82
2019-05-11T19:33:14.863Z,25.25
2019-05-11T19:35:44.915Z,23.07
2019-05-11T19:38:15.020Z,24.75
2019-05-11T19:40:45.594Z,26.15
2019-05-11T19:43:15.526Z,23.83
2019-05-11T19:45:45.726Z,22.93
2019-05-11T19:48:15.870Z,39.10
2019-05-11T19:50:59.906Z,22.35
2019-05-11T19:53:18.812Z,23.73
2019-05-11T19:55:50.253Z,33.05
2019-05-11T19:58:21.456Z,26.93
2019-05-11T20:00:51.779Z,160.48
2019-05-11T20:03:21.906Z,126.18
2019-05-11T20:05:51.992Z,55.80
2019-05-11T20:08:22.079Z,58.20
2019-05-11T20:10:52.159Z,83.40
2019-05-11T20:13:22.211Z,98.12
2019-05-11T20:15:52.164Z,87.65
2019-05-11T20:18:22.139Z,101.05
2019-05-11T20:20:52.207Z,39.90
2019-05-11T20:23:22.118Z,53.85
2019-05-11T20:25:52.210Z,27.52
2019-05-11T20:28:22.230Z,21.60
2019-05-11T20:30:53.967Z,19.30
2019-05-11T20:33:23.855Z,17.10
2019-05-11T20:35:53.960Z,17.87
2019-05-11T20:38:23.993Z,14.35
2019-05-11T20:40:54.097Z,16.65
2019-05-11T20:43:24.290Z,14.70
2019-05-11T20:45:56.189Z,14.55
2019-05-11T20:48:27.754Z,25.08
2019-05-11T20:50:58.098Z,18.00
2019-05-11T20:53:28.652Z,32.60
2019-05-11T20:56:00.110Z,14.58
2019-05-11T20:58:31.805Z,18.35
2019-05-11T21:01:02.198Z,14.60
2019-05-11T21:03:32.344Z,12.63
2019-05-11T21:06:02.401Z,12.35
2019-05-11T21:08:32.996Z,11.08
2019-05-11T21:11:03.341Z,11.35
2019-05-11T21:13:33.437Z,10.68
2019-05-11T21:16:03.789Z,9.78
2019-05-11T21:18:33.879Z,10.63
2019-05-11T21:21:04.475Z,9.73
2019-05-11T21:23:34.781Z,10.82
2019-05-11T21:26:05.436Z,10.50
2019-05-11T21:28:37.586Z,10.58
2019-05-11T21:31:08.241Z,10.35
2019-05-11T21:33:38.871Z,8.75
2019-05-11T21:36:09.080Z,10.10
2019-05-11T21:38:39.397Z,10.10
2019-05-11T21:41:09.595Z,9.73
2019-05-11T21:43:39.838Z,10.88
2019-05-11T21:46:10.002Z,10.90
2019-05-11T21:48:40.164Z,10.10
2019-05-11T21:51:10.616Z,9.25
2019-05-11T21:53:41.103Z,8.58
2019-05-11T21:56:12.152Z,8.95
2019-05-11T21:58:42.328Z,8.23
2019-05-11T22:01:12.999Z,8.58
2019-05-11T22:03:43.119Z,8.88
2019-05-11T22:06:13.542Z,8.53
2019-05-11T22:08:43.485Z,8.68
2019-05-11T22:11:14.250Z,8.50
2019-05-11T22:13:44.811Z,8.23
2019-05-11T22:16:15.150Z,9.10
2019-05-11T22:18:45.635Z,8.48
2019-05-11T22:21:15.818Z,8.28
2019-05-11T22:23:47.455Z,8.30
2019-05-11T22:26:18.156Z,8.38
2019-05-11T22:28:48.540Z,9.25
2019-05-11T22:31:18.897Z,8.35
2019-05-11T22:33:49.456Z,9.58
2019-05-11T22:36:20.683Z,8.20
2019-05-11T22:38:51.060Z,10.70
2019-05-11T22:41:24.450Z,14.28
2019-05-11T22:43:54.731Z,19.85
2019-05-11T22:46:25.020Z,16.77
2019-05-11T22:48:58.111Z,16.52
2019-05-11T22:51:28.819Z,13.28
2019-05-11T22:53:59.323Z,9.55
2019-05-11T22:56:30.416Z,8.08
2019-05-11T22:59:00.320Z,7.50
2019-05-11T23:01:30.831Z,7.50
2019-05-11T23:04:01.320Z,7.58
2019-05-11T23:06:31.946Z,6.97
2019-05-11T23:09:02.397Z,7.28
2019-05-11T23:11:32.860Z,7.12
2019-05-11T23:14:03.241Z,7.30
2019-05-11T23:16:33.966Z,6.95
2019-05-11T23:19:04.372Z,6.70
2019-05-11T23:21:34.522Z,6.95
2019-05-11T23:24:04.988Z,6.30
2019-05-11T23:26:35.515Z,7.50
2019-05-11T23:29:08.030Z,7.87
2019-05-11T23:31:38.382Z,7.03
2019-05-11T23:34:08.488Z,7.25
2019-05-11T23:36:39.018Z,7.58
2019-05-11T23:39:09.888Z,6.80
2019-05-11T23:41:40.172Z,6.83
2019-05-11T23:44:10.355Z,6.75
2019-05-11T23:46:40.545Z,6.12
2019-05-11T23:49:10.706Z,5.92
2019-05-11T23:51:40.880Z,6.80
2019-05-11T23:54:10.989Z,5.90
2019-05-11T23:56:43.520Z,6.05
2019-05-11T23:59:13.767Z,6.10
